Time;durP1;ratioP1;P1;durP2;ratioP2;P2;SDS_P1;SDS_P2;PMS_P1;PMS_P2;Temp;Humidity;BMP_temperature;BMP_pressure;BME280_temperature;BME280_humidity;BME280_pressure;Samples;Min_cycle;Max_cycle;Signal;HPM_P1;HPM_P2
2021/12/29 00:00:48;;;;;;;32.90;6.70;;;14.60;99.90;;;;;;5068474;28;20020;-60
2021/12/29 00:03:15;;;;;;;44.30;7.15;;;14.60;99.90;;;;;;5068134;28;20482;-59
2021/12/29 00:05:41;;;;;;;36.97;7.38;;;14.50;99.90;;;;;;5067765;28;20051;-60
2021/12/29 00:08:07;;;;;;;36.42;6.75;;;14.60;99.90;;;;;;5069389;28;20032;-60
2021/12/29 00:10:33;;;;;;;34.35;6.68;;;14.50;99.90;;;;;;5072179;28;20391;-60
2021/12/29 00:13:00;;;;;;;31.55;6.50;;;14.60;99.90;;;;;;5067940;28;20400;-60
2021/12/29 00:15:27;;;;;;;41.88;6.55;;;14.50;99.90;;;;;;5067851;28;20382;-60
2021/12/29 00:17:55;;;;;;;40.08;6.82;;;14.50;99.90;;;;;;5069145;28;20126;-59
2021/12/29 00:20:28;;;;;;;37.03;6.63;;;14.40;99.90;;;;;;5068266;28;20099;-59
2021/12/29 00:23:01;;;;;;;32.28;6.30;;;14.40;99.90;;;;;;5070164;28;20029;-59
2021/12/29 00:25:27;;;;;;;39.28;7.03;;;14.50;99.90;;;;;;5070173;28;20390;-58
2021/12/29 00:27:55;;;;;;;31.45;6.45;;;14.40;99.90;;;;;;5067295;28;20510;-58
2021/12/29 00:30:21;;;;;;;39.63;6.65;;;14.50;99.90;;;;;;5067878;28;20016;-59
2021/12/29 00:32:47;;;;;;;33.05;5.97;;;14.40;99.90;;;;;;5067254;28;20415;-59
2021/12/29 00:35:14;;;;;;;33.97;6.43;;;14.50;99.90;;;;;;5068402;28;20047;-60
2021/12/29 00:37:41;;;;;;;34.30;5.82;;;14.40;99.90;;;;;;5067150;28;20032;-59
2021/12/29 00:40:12;;;;;;;36.67;6.03;;;14.30;99.90;;;;;;5067368;28;20028;-59
2021/12/29 00:42:38;;;;;;;25.20;5.68;;;14.40;99.90;;;;;;5067490;28;20032;-59
2021/12/29 00:45:05;;;;;;;28.48;5.45;;;14.40;99.90;;;;;;5067223;28;20068;-59
2021/12/29 00:47:33;;;;;;;32.80;5.82;;;14.50;99.90;;;;;;5069187;28;20022;-58
2021/12/29 00:50:06;;;;;;;29.52;5.78;;;14.50;99.90;;;;;;5069513;28;20033;-58
2021/12/29 00:52:32;;;;;;;33.80;5.70;;;14.40;99.90;;;;;;5070207;28;20032;-58
2021/12/29 00:55:00;;;;;;;38.15;6.70;;;14.30;99.90;;;;;;5067670;28;20288;-58
2021/12/29 00:57:26;;;;;;;33.90;5.20;;;14.40;99.90;;;;;;5068695;28;20107;-59
2021/12/29 00:59:51;;;;;;;36.45;5.88;;;14.20;99.90;;;;;;5068410;28;20072;-59
2021/12/29 01:02:17;;;;;;;36.30;5.90;;;14.20;99.90;;;;;;5067623;28;20024;-58
2021/12/29 01:04:43;;;;;;;31.90;6.18;;;14.10;99.90;;;;;;5071450;28;20095;-58
2021/12/29 01:07:09;;;;;;;28.98;5.22;;;14.10;99.90;;;;;;5068437;28;20036;-58
2021/12/29 01:09:34;;;;;;;27.75;4.85;;;14.20;99.90;;;;;;5071653;28;20032;-57
2021/12/29 01:12:00;;;;;;;33.83;5.95;;;14.20;99.90;;;;;;5071266;28;20126;-58
2021/12/29 01:14:30;;;;;;;33.85;6.10;;;14.30;99.90;;;;;;5071361;28;20023;-58
2021/12/29 01:16:56;;;;;;;29.92;5.78;;;14.30;99.90;;;;;;5073537;28;20111;-58
2021/12/29 01:19:26;;;;;;;33.00;5.53;;;14.20;99.90;;;;;;5073269;28;20020;-58
2021/12/29 01:21:54;;;;;;;33.65;5.57;;;14.30;99.90;;;;;;5070987;28;20024;-58
2021/12/29 01:24:22;;;;;;;31.00;5.22;;;14.50;99.90;;;;;;5070925;28;20486;-58
2021/12/29 01:26:49;;;;;;;33.33;5.60;;;14.40;99.90;;;;;;5072692;28;20133;-59
2021/12/29 01:29:15;;;;;;;27.92;5.20;;;14.30;99.90;;;;;;5071646;28;20039;-58
2021/12/29 01:31:41;;;;;;;36.78;10.70;;;14.20;99.90;;;;;;5070967;28;20025;-59
2021/12/29 01:34:07;;;;;;;26.83;5.28;;;14.20;99.90;;;;;;5070723;28;20541;-58
2021/12/29 01:36:35;;;;;;;29.50;5.30;;;14.20;99.90;;;;;;5072236;28;20090;-58
2021/12/29 01:39:04;;;;;;;26.95;5.32;;;14.20;99.90;;;;;;5070784;28;20101;-59
2021/12/29 01:41:30;;;;;;;37.60;6.72;;;14.10;99.90;;;;;;5071084;28;20078;-58
2021/12/29 01:43:56;;;;;;;26.65;5.35;;;14.10;99.90;;;;;;5073019;28;20060;-58
2021/12/29 01:46:22;;;;;;;32.65;5.90;;;14.40;99.90;;;;;;5072253;28;20075;-58
2021/12/29 01:48:48;;;;;;;30.40;5.50;;;14.50;99.90;;;;;;5072097;28;20056;-58
2021/12/29 01:51:17;;;;;;;26.63;5.03;;;14.40;99.90;;;;;;5070402;28;20039;-59
2021/12/29 01:53:49;;;;;;;28.80;5.00;;;14.30;99.90;;;;;;5071278;28;20021;-58
2021/12/29 01:56:15;;;;;;;31.67;5.53;;;14.20;99.90;;;;;;5055361;28;20035;-59
2021/12/29 01:58:41;;;;;;;30.08;5.05;;;14.20;99.90;;;;;;5070223;28;20033;-59
2021/12/29 02:01:07;;;;;;;27.73;5.07;;;14.20;99.90;;;;;;5070307;28;20029;-59
2021/12/29 02:03:33;;;;;;;28.42;5.22;;;14.40;99.90;;;;;;5070278;28;20060;-58
2021/12/29 02:05:59;;;;;;;28.65;6.05;;;14.40;99.90;;;;;;5070654;28;20075;-58
2021/12/29 02:08:25;;;;;;;26.50;5.22;;;14.50;99.90;;;;;;5070392;28;20053;-59
2021/12/29 02:10:52;;;;;;;22.73;5.25;;;14.40;99.90;;;;;;5073137;28;20052;-58
2021/12/29 02:13:19;;;;;;;31.27;5.95;;;14.50;99.90;;;;;;5073739;28;20047;-58
2021/12/29 02:15:45;;;;;;;25.63;5.38;;;14.60;99.90;;;;;;5071734;28;20031;-59
2021/12/29 02:18:15;;;;;;;26.92;5.15;;;14.50;99.90;;;;;;5069640;28;20024;-58
2021/12/29 02:20:46;;;;;;;29.10;5.00;;;14.50;99.90;;;;;;5070341;28;20036;-58
2021/12/29 02:23:19;;;;;;;27.90;5.15;;;14.30;99.90;;;;;;5070424;28;20043;-59
2021/12/29 02:25:51;;;;;;;22.17;4.97;;;14.30;99.90;;;;;;5069914;28;20077;-59
2021/12/29 02:28:43;;;;;;;28.77;5.63;;;14.40;99.90;;;;;;5072885;28;20436;-58
2021/12/29 02:31:09;;;;;;;29.63;5.22;;;14.30;99.90;;;;;;5068979;28;20032;-58
2021/12/29 02:33:35;;;;;;;32.80;11.88;;;14.20;99.90;;;;;;5069589;28;20054;-58
2021/12/29 02:36:02;;;;;;;53.65;24.50;;;14.20;99.90;;;;;;5070256;28;20040;-59
2021/12/29 02:38:36;;;;;;;37.47;13.70;;;14.10;99.90;;;;;;5070109;28;20041;-58
2021/12/29 02:41:07;;;;;;;37.35;12.15;;;14.00;99.90;;;;;;5071607;28;20029;-58
2021/12/29 02:43:38;;;;;;;43.42;14.27;;;14.00;99.90;;;;;;5073727;28;20029;-58
2021/12/29 02:46:11;;;;;;;34.10;9.65;;;13.90;99.90;;;;;;5069774;28;20115;-57
2021/12/29 02:48:40;;;;;;;34.13;9.32;;;14.00;99.90;;;;;;5069351;28;20028;-58
2021/12/29 02:51:08;;;;;;;23.95;5.38;;;14.20;99.90;;;;;;5069422;28;20031;-58
2021/12/29 02:53:35;;;;;;;26.02;4.22;;;14.40;99.90;;;;;;5071244;28;20062;-57
2021/12/29 02:56:01;;;;;;;22.88;5.00;;;14.40;99.90;;;;;;5070888;28;20021;-57
2021/12/29 02:58:27;;;;;;;70.25;38.72;;;14.30;99.90;;;;;;5073559;28;20123;-58
2021/12/29 03:00:55;;;;;;;29.45;8.13;;;14.20;99.90;;;;;;5069579;28;20530;-58
2021/12/29 03:03:23;;;;;;;22.08;5.45;;;14.20;99.90;;;;;;5068804;28;20156;-58
2021/12/29 03:05:50;;;;;;;24.85;5.15;;;14.30;99.90;;;;;;5070915;28;20110;-58
2021/12/29 03:08:18;;;;;;;25.50;4.90;;;14.20;99.90;;;;;;5069387;28;20577;-58
2021/12/29 03:10:45;;;;;;;25.10;4.68;;;14.40;99.90;;;;;;5073404;28;20036;-58
2021/12/29 03:13:11;;;;;;;27.23;5.75;;;14.50;99.90;;;;;;5069395;28;20078;-58
2021/12/29 03:15:38;;;;;;;28.65;5.72;;;14.50;99.90;;;;;;5069067;28;20028;-58
2021/12/29 03:18:05;;;;;;;26.10;4.70;;;14.50;99.90;;;;;;5069065;28;20052;-58
2021/12/29 03:20:31;;;;;;;23.20;4.47;;;14.50;99.90;;;;;;5069206;28;20047;-59
2021/12/29 03:22:58;;;;;;;24.08;4.53;;;14.40;99.90;;;;;;5071410;28;20040;-58
2021/12/29 03:25:24;;;;;;;22.50;4.63;;;14.50;99.90;;;;;;5070396;28;20037;-58
2021/12/29 03:27:51;;;;;;;20.05;4.32;;;14.60;99.90;;;;;;5068727;28;20544;-58
2021/12/29 03:30:17;;;;;;;19.88;4.28;;;14.60;99.90;;;;;;5068677;28;20376;-59
2021/12/29 03:32:51;;;;;;;23.85;4.72;;;14.60;99.90;;;;;;5069913;28;20051;-59
2021/12/29 03:35:16;;;;;;;27.13;5.07;;;14.60;99.90;;;;;;5053094;28;20040;-58
2021/12/29 03:37:43;;;;;;;19.27;4.40;;;14.60;99.90;;;;;;5073362;28;20082;-57
2021/12/29 03:40:10;;;;;;;21.77;4.60;;;14.50;99.90;;;;;;5068532;28;20549;-58
2021/12/29 03:42:36;;;;;;;14.15;4.00;;;14.50;99.90;;;;;;5068294;28;20021;-59
2021/12/29 03:45:03;;;;;;;20.30;4.50;;;14.30;99.90;;;;;;5070046;28;20040;-57
2021/12/29 03:47:29;;;;;;;25.48;4.65;;;14.40;99.90;;;;;;5068466;28;20060;-58
2021/12/29 03:49:55;;;;;;;18.75;4.47;;;14.30;99.90;;;;;;5070904;28;20074;-59
2021/12/29 03:52:21;;;;;;;17.05;3.75;;;14.40;99.90;;;;;;5070040;28;20040;-58
2021/12/29 03:54:47;;;;;;;18.20;3.70;;;14.60;99.90;;;;;;5068025;28;20052;-58
2021/12/29 03:57:12;;;;;;;19.95;4.20;;;14.70;99.90;;;;;;5068497;28;20035;-59
2021/12/29 03:59:38;;;;;;;18.63;3.80;;;14.60;99.90;;;;;;5068028;28;20035;-58
2021/12/29 04:02:04;;;;;;;16.20;3.70;;;14.70;99.90;;;;;;5069774;28;20025;-58
2021/12/29 04:04:29;;;;;;;15.55;3.85;;;14.70;99.90;;;;;;5070798;28;20032;-58
2021/12/29 04:06:55;;;;;;;22.48;3.90;;;14.70;99.90;;;;;;5068147;28;20059;-59
2021/12/29 04:09:21;;;;;;;15.77;3.78;;;14.70;99.90;;;;;;5067933;28;20029;-58
2021/12/29 04:11:50;;;;;;;18.23;3.45;;;14.60;99.90;;;;;;5069796;28;20490;-57
2021/12/29 04:14:19;;;;;;;17.58;4.25;;;14.60;99.90;;;;;;5052085;28;20017;-58
2021/12/29 04:16:46;;;;;;;13.57;3.28;;;14.50;99.90;;;;;;5068136;28;20031;-58
2021/12/29 04:19:17;;;;;;;16.35;3.95;;;14.50;99.90;;;;;;5070059;28;20054;-58
2021/12/29 04:21:47;;;;;;;18.50;3.67;;;14.50;99.90;;;;;;5067655;28;20048;-58
2021/12/29 04:24:14;;;;;;;15.32;3.50;;;14.40;99.90;;;;;;5069639;28;20024;-59
2021/12/29 04:26:40;;;;;;;12.57;3.25;;;14.50;99.90;;;;;;5067888;28;20115;-58
2021/12/29 04:29:08;;;;;;;14.73;3.65;;;14.60;99.90;;;;;;5067616;28;20035;-58
2021/12/29 04:31:34;;;;;;;13.40;3.17;;;14.60;99.90;;;;;;5070573;28;20032;-57
2021/12/29 04:34:00;;;;;;;11.93;3.22;;;14.60;99.90;;;;;;5067218;28;20435;-59
2021/12/29 04:36:26;;;;;;;13.30;2.90;;;14.80;99.90;;;;;;5067806;28;20033;-58
2021/12/29 04:38:58;;;;;;;15.40;3.65;;;14.90;99.90;;;;;;5069354;28;20027;-58
2021/12/29 04:41:24;;;;;;;14.00;3.60;;;14.90;99.90;;;;;;5066629;28;20037;-57
2021/12/29 04:43:50;;;;;;;15.98;3.05;;;14.80;99.90;;;;;;5070446;28;20479;-57
2021/12/29 04:46:18;;;;;;;12.25;3.55;;;14.80;99.90;;;;;;5069020;28;20067;-58
2021/12/29 04:48:52;;;;;;;13.55;3.55;;;14.80;99.90;;;;;;5067507;28;20516;-58
2021/12/29 04:51:25;;;;;;;12.90;3.10;;;14.90;99.90;;;;;;5068966;28;20032;-57
2021/12/29 04:53:51;;;;;;;11.23;2.90;;;15.00;99.90;;;;;;5067496;28;20017;-58
2021/12/29 04:56:17;;;;;;;18.95;3.85;;;14.90;99.90;;;;;;5067356;28;20024;-58
2021/12/29 04:58:43;;;;;;;14.85;3.15;;;14.90;99.90;;;;;;5071214;28;20029;-58
2021/12/29 05:01:09;;;;;;;15.52;3.20;;;14.90;99.90;;;;;;5067115;28;20037;-58
2021/12/29 05:03:37;;;;;;;14.65;3.25;;;14.90;99.90;;;;;;5069457;28;20116;-58
2021/12/29 05:08:32;;;;;;;13.10;3.08;;;14.90;99.90;;;;;;5067432;28;20045;-58
2021/12/29 05:11:10;;;;;;;17.33;3.28;;;14.90;99.90;;;;;;5069657;28;20033;-57
2021/12/29 05:13:39;;;;;;;11.70;3.03;;;14.90;99.90;;;;;;5070383;28;20025;-58
2021/12/29 05:16:06;;;;;;;11.25;2.90;;;14.80;99.90;;;;;;5067352;28;20032;-58
2021/12/29 05:18:34;;;;;;;13.95;3.80;;;14.90;99.90;;;;;;5067242;28;20021;-58
2021/12/29 05:21:00;;;;;;;12.45;3.35;;;14.90;99.90;;;;;;5067135;28;20537;-58
2021/12/29 05:23:27;;;;;;;15.70;3.38;;;14.90;99.90;;;;;;5067403;28;20036;-57
2021/12/29 05:25:54;;;;;;;11.68;2.90;;;15.00;99.90;;;;;;5069816;28;20037;-58
2021/12/29 05:28:20;;;;;;;12.98;2.97;;;15.00;99.90;;;;;;5069705;28;20036;-58
2021/12/29 05:30:47;;;;;;;12.35;3.00;;;15.00;99.90;;;;;;5069011;28;20509;-58
2021/12/29 05:33:14;;;;;;;17.40;2.92;;;15.20;99.90;;;;;;5066888;28;20044;-59
2021/12/29 05:35:40;;;;;;;16.23;3.00;;;15.20;99.90;;;;;;5067305;28;20431;-58
2021/12/29 05:38:06;;;;;;;11.48;2.80;;;15.30;99.90;;;;;;5068217;28;20043;-58
2021/12/29 05:40:32;;;;;;;13.45;3.42;;;15.20;99.90;;;;;;5069742;28;20429;-58
2021/12/29 05:42:58;;;;;;;13.25;2.80;;;15.30;99.90;;;;;;5068426;28;20082;-57
2021/12/29 05:45:26;;;;;;;9.52;2.78;;;15.40;99.90;;;;;;5066998;28;20463;-58
2021/12/29 05:47:52;;;;;;;13.82;2.97;;;15.50;99.90;;;;;;5066904;28;20037;-58
2021/12/29 05:50:21;;;;;;;11.48;2.85;;;15.50;99.90;;;;;;5067053;28;20032;-58
2021/12/29 05:52:48;;;;;;;9.85;2.72;;;15.40;99.90;;;;;;5071163;28;20044;-58
2021/12/29 05:55:15;;;;;;;16.85;3.17;;;15.40;99.90;;;;;;5071763;28;20021;-58
2021/12/29 05:57:41;;;;;;;13.38;3.55;;;15.40;99.90;;;;;;5070310;28;20398;-58
2021/12/29 06:00:10;;;;;;;11.50;3.28;;;15.40;99.90;;;;;;5070535;28;20051;-58
2021/12/29 06:02:35;;;;;;;14.05;3.10;;;15.30;99.90;;;;;;5070684;28;20051;-58
2021/12/29 06:05:02;;;;;;;11.88;3.13;;;15.40;99.90;;;;;;5073140;28;20028;-58
2021/12/29 06:07:27;;;;;;;16.10;3.38;;;15.30;99.90;;;;;;5072749;28;20031;-59
2021/12/29 06:09:53;;;;;;;12.35;3.20;;;15.40;99.90;;;;;;5071808;28;20487;-58
2021/12/29 06:12:19;;;;;;;14.68;3.38;;;15.40;99.90;;;;;;5069950;28;20459;-58
2021/12/29 06:14:47;;;;;;;14.00;2.63;;;15.30;99.90;;;;;;5069032;28;20024;-58
2021/12/29 06:17:14;;;;;;;15.77;3.50;;;15.30;99.90;;;;;;5070554;28;20043;-58
2021/12/29 06:19:40;;;;;;;10.32;2.72;;;15.50;99.90;;;;;;5074338;28;20025;-58
2021/12/29 06:22:10;;;;;;;15.35;3.13;;;15.40;99.90;;;;;;5071569;28;20036;-58
2021/12/29 06:24:41;;;;;;;10.35;2.55;;;15.40;99.90;;;;;;5069805;28;20555;-58
2021/12/29 06:27:08;;;;;;;12.05;2.72;;;15.40;99.90;;;;;;5070035;28;20036;-58
2021/12/29 06:29:34;;;;;;;13.63;3.30;;;15.40;99.90;;;;;;5070149;28;20028;-58
2021/12/29 06:32:00;;;;;;;10.25;2.88;;;15.50;99.90;;;;;;5072188;28;20039;-59
2021/12/29 06:34:26;;;;;;;13.63;2.90;;;15.40;99.90;;;;;;5072301;28;20402;-58
2021/12/29 06:36:52;;;;;;;10.85;2.65;;;15.40;99.90;;;;;;5069801;28;20025;-58
2021/12/29 06:39:18;;;;;;;13.38;3.00;;;15.40;99.90;;;;;;5069371;28;20031;-57
2021/12/29 06:41:45;;;;;;;11.65;2.80;;;15.50;99.90;;;;;;5069979;28;20020;-58
2021/12/29 06:44:11;;;;;;;8.50;2.80;;;15.40;99.90;;;;;;5070695;28;20037;-58
2021/12/29 06:46:36;;;;;;;14.10;2.90;;;15.30;99.90;;;;;;5071747;28;20043;-58
2021/12/29 06:49:03;;;;;;;12.65;2.78;;;15.40;99.90;;;;;;5071577;28;20033;-58
2021/12/29 06:51:28;;;;;;;10.05;2.22;;;15.40;99.90;;;;;;5069518;28;20036;-58
2021/12/29 06:53:54;;;;;;;10.40;2.70;;;15.50;99.90;;;;;;5069241;28;20025;-58
2021/12/29 06:56:20;;;;;;;16.13;2.70;;;15.60;99.90;;;;;;5069372;28;20029;-58
2021/12/29 06:58:46;;;;;;;9.20;2.38;;;15.50;99.90;;;;;;5073562;28;20031;-58
2021/12/29 07:01:13;;;;;;;11.50;2.35;;;15.50;99.90;;;;;;5069682;28;20036;-58
2021/12/29 07:03:39;;;;;;;10.43;2.38;;;15.50;99.90;;;;;;5069035;28;20067;-58
2021/12/29 07:06:05;;;;;;;10.65;2.80;;;15.50;99.90;;;;;;5068596;28;20454;-58
2021/12/29 07:08:31;;;;;;;8.25;2.58;;;15.50;99.90;;;;;;5069068;28;20092;-58
2021/12/29 07:10:57;;;;;;;8.73;2.25;;;15.50;99.90;;;;;;5071961;28;20024;-58
2021/12/29 07:13:22;;;;;;;10.32;2.50;;;15.50;99.90;;;;;;5071053;28;20475;-58
2021/12/29 07:15:48;;;;;;;8.88;2.40;;;15.60;99.90;;;;;;5069116;28;20024;-58
2021/12/29 07:18:14;;;;;;;9.20;2.13;;;15.70;99.90;;;;;;5069082;28;20035;-58
2021/12/29 07:20:42;;;;;;;10.15;2.35;;;15.60;99.90;;;;;;5069526;28;20016;-58
2021/12/29 07:23:08;;;;;;;8.38;2.20;;;15.50;99.90;;;;;;5070075;28;20036;-58
2021/12/29 07:25:34;;;;;;;9.65;2.13;;;15.50;99.90;;;;;;5071736;28;20028;-58
2021/12/29 07:28:00;;;;;;;11.45;2.55;;;15.50;99.90;;;;;;5070179;28;20059;-58
2021/12/29 07:30:25;;;;;;;9.73;2.88;;;15.40;99.90;;;;;;5068822;28;20032;-57
2021/12/29 07:32:51;;;;;;;9.57;2.15;;;15.30;99.90;;;;;;5069151;28;20036;-58
2021/12/29 07:35:18;;;;;;;9.15;2.22;;;15.20;99.90;;;;;;5068726;28;20040;-58
2021/12/29 07:37:43;;;;;;;13.25;2.90;;;15.00;99.90;;;;;;5068290;28;20070;-58
2021/12/29 07:40:09;;;;;;;9.18;2.58;;;14.90;99.90;;;;;;5069975;28;20032;-58
2021/12/29 07:42:37;;;;;;;13.95;2.80;;;14.90;99.90;;;;;;5068654;28;20515;-58
2021/12/29 07:45:07;;;;;;;9.77;2.28;;;14.70;99.90;;;;;;5068464;28;20037;-58
2021/12/29 07:47:33;;;;;;;10.90;2.72;;;14.80;99.90;;;;;;5068921;28;20503;-53
2021/12/29 07:49:59;;;;;;;8.95;2.60;;;14.80;99.90;;;;;;5071157;28;20031;-59
2021/12/29 07:52:25;;;;;;;15.25;2.85;;;14.80;99.90;;;;;;5071895;28;20021;-58
2021/12/29 07:54:51;;;;;;;10.20;2.35;;;14.70;99.90;;;;;;5068669;28;20021;-57
2021/12/29 07:57:16;;;;;;;13.15;2.70;;;14.70;99.90;;;;;;5068204;28;20111;-58
2021/12/29 07:59:42;;;;;;;10.93;2.75;;;14.70;99.90;;;;;;5068510;28;20016;-58
2021/12/29 08:02:14;;;;;;;14.43;3.22;;;14.60;99.90;;;;;;5069716;28;20490;-58
2021/12/29 08:04:40;;;;;;;14.93;3.10;;;14.60;99.90;;;;;;5072160;28;20035;-58
2021/12/29 08:07:05;;;;;;;12.77;2.80;;;14.60;99.90;;;;;;5069217;28;20029;-58
2021/12/29 08:09:31;;;;;;;12.45;3.15;;;14.60;99.90;;;;;;5067922;28;20536;-57
2021/12/29 08:11:57;;;;;;;11.65;2.92;;;14.60;99.90;;;;;;5068073;28;20037;-58
2021/12/29 08:14:22;;;;;;;14.45;2.70;;;14.60;99.90;;;;;;5067884;28;20116;-58
2021/12/29 08:16:48;;;;;;;13.88;2.80;;;14.60;99.90;;;;;;5071195;28;20082;-58
2021/12/29 08:19:16;;;;;;;10.82;2.88;;;14.50;99.90;;;;;;5070029;28;20390;-58
2021/12/29 08:21:42;;;;;;;15.15;3.25;;;14.50;99.90;;;;;;5067542;28;20436;-58
2021/12/29 08:24:08;;;;;;;13.90;3.50;;;14.50;99.90;;;;;;5067808;28;20399;-58
2021/12/29 08:26:34;;;;;;;15.15;3.38;;;14.50;99.90;;;;;;5068053;28;20040;-58
2021/12/29 08:29:01;;;;;;;9.02;2.50;;;14.60;99.90;;;;;;5068937;28;20440;-58
2021/12/29 08:31:27;;;;;;;12.10;3.47;;;14.40;99.90;;;;;;5069480;28;20036;-58
2021/12/29 08:33:53;;;;;;;12.10;2.63;;;14.50;99.90;;;;;;5067323;28;20052;-58
2021/12/29 08:36:19;;;;;;;12.07;3.08;;;14.50;99.90;;;;;;5067607;28;20054;-58
2021/12/29 08:38:45;;;;;;;15.10;2.92;;;14.50;99.90;;;;;;5067857;28;20482;-58
2021/12/29 08:41:12;;;;;;;13.60;3.10;;;14.60;99.90;;;;;;5068538;28;20029;-58
2021/12/29 08:43:38;;;;;;;15.77;3.00;;;14.50;99.90;;;;;;5070842;28;20047;-58
2021/12/29 08:46:04;;;;;;;13.35;3.08;;;14.50;99.90;;;;;;5068806;28;20071;-58
2021/12/29 08:48:30;;;;;;;16.13;5.88;;;14.50;99.90;;;;;;5065953;28;20056;-58
2021/12/29 08:50:59;;;;;;;19.85;10.25;;;14.60;99.90;;;;;;5067199;28;20035;-58
2021/12/29 08:53:26;;;;;;;19.05;10.07;;;14.60;99.90;;;;;;5067813;28;20036;-58
2021/12/29 08:55:55;;;;;;;22.08;13.32;;;14.60;99.90;;;;;;5070463;28;20429;-58
2021/12/29 08:58:24;;;;;;;13.05;4.40;;;14.60;99.90;;;;;;5070366;28;20048;-57
2021/12/29 09:00:52;;;;;;;15.82;4.85;;;14.60;99.90;;;;;;5067603;28;20211;-58
2021/12/29 09:03:18;;;;;;;11.57;3.35;;;14.60;99.90;;;;;;5067397;28;20030;-58
2021/12/29 09:05:43;;;;;;;32.25;21.08;;;14.60;99.90;;;;;;5067033;28;20509;-58
2021/12/29 09:08:09;;;;;;;16.02;9.50;;;14.60;99.90;;;;;;5068720;28;20017;-58
2021/12/29 09:10:36;;;;;;;15.48;4.50;;;14.60;99.90;;;;;;5070260;28;20498;-58
2021/12/29 09:13:02;;;;;;;24.95;17.13;;;14.60;99.90;;;;;;5067031;28;20049;-58
2021/12/29 09:15:29;;;;;;;17.30;9.10;;;14.60;99.90;;;;;;5067163;28;20479;-58
2021/12/29 09:17:54;;;;;;;16.60;5.35;;;14.60;99.90;;;;;;5067307;28;20024;-58
2021/12/29 09:20:26;;;;;;;17.08;4.05;;;14.60;99.90;;;;;;5067462;28;20031;-59
2021/12/29 09:22:54;;;;;;;15.60;4.28;;;14.60;99.90;;;;;;5070413;28;20425;-58
2021/12/29 09:25:22;;;;;;;13.48;5.95;;;14.60;99.90;;;;;;5069761;28;20040;-58
2021/12/29 09:27:50;;;;;;;23.38;7.60;;;14.60;99.90;;;;;;5067980;28;20070;-58
2021/12/29 09:30:26;;;;;;;16.33;6.90;;;14.70;99.90;;;;;;5070998;28;20107;-58
2021/12/29 09:32:53;;;;;;;48.67;27.88;;;14.60;99.90;;;;;;5070688;28;20102;-58
2021/12/29 09:35:20;;;;;;;52.90;34.70;;;14.60;99.90;;;;;;5072703;28;20036;-61
2021/12/29 09:37:46;;;;;;;39.45;29.23;;;14.50;99.90;;;;;;5075257;28;20033;-61
2021/12/29 09:40:13;;;;;;;55.08;40.45;;;14.50;99.90;;;;;;5070762;28;20024;-58
2021/12/29 09:42:40;;;;;;;19.75;14.20;;;14.50;99.90;;;;;;5070928;28;20426;-58
2021/12/29 09:45:07;;;;;;;24.08;16.25;;;14.60;99.90;;;;;;5070509;28;20403;-58
2021/12/29 09:47:34;;;;;;;21.77;17.33;;;14.70;99.90;;;;;;5070566;28;20045;-57
2021/12/29 09:50:03;;;;;;;16.48;8.50;;;14.90;99.90;;;;;;5073185;28;20521;-58
2021/12/29 09:52:33;;;;;;;15.80;6.68;;;14.90;99.90;;;;;;5072742;28;20059;-58
2021/12/29 09:55:04;;;;;;;13.50;5.30;;;14.90;99.90;;;;;;5070853;28;20040;-58
2021/12/29 09:57:30;;;;;;;16.08;7.22;;;14.80;99.90;;;;;;5070639;28;20027;-58
2021/12/29 09:59:56;;;;;;;15.07;6.53;;;14.90;99.90;;;;;;5070387;28;20021;-58
2021/12/29 10:02:21;;;;;;;23.30;13.35;;;14.90;99.90;;;;;;5072196;28;20522;-58
2021/12/29 10:04:47;;;;;;;20.52;12.52;;;14.90;99.90;;;;;;5074796;28;20544;-57
2021/12/29 10:07:16;;;;;;;19.45;11.80;;;15.00;99.90;;;;;;5070654;28;20063;-58
2021/12/29 10:09:42;;;;;;;86.82;75.10;;;15.00;99.90;;;;;;5070327;28;20116;-58
2021/12/29 10:12:17;;;;;;;45.75;41.17;;;15.10;99.90;;;;;;5069883;28;20107;-58
2021/12/29 10:14:51;;;;;;;89.10;80.55;;;15.20;99.90;;;;;;5070674;28;20388;-58
2021/12/29 10:17:17;;;;;;;19.30;14.55;;;15.40;99.90;;;;;;5069647;28;20032;-58
2021/12/29 10:19:44;;;;;;;17.38;7.75;;;15.60;99.90;;;;;;5074373;28;20024;-58
2021/12/29 10:22:21;;;;;;;14.80;8.02;;;15.60;99.90;;;;;;5070294;28;20036;-58
2021/12/29 10:24:47;;;;;;;14.73;5.75;;;15.70;99.90;;;;;;5070251;28;20029;-58
2021/12/29 10:27:19;;;;;;;11.35;5.78;;;15.70;99.90;;;;;;5070090;28;20437;-58
2021/12/29 10:29:45;;;;;;;14.57;6.20;;;15.80;99.90;;;;;;5070009;28;20028;-58
2021/12/29 10:32:11;;;;;;;15.32;7.53;;;15.70;99.90;;;;;;5070617;28;20160;-58
2021/12/29 10:34:37;;;;;;;23.27;13.80;;;15.80;99.90;;;;;;5072968;28;20594;-58
2021/12/29 10:37:07;;;;;;;15.50;10.48;;;16.00;99.90;;;;;;5070217;28;20036;-58
2021/12/29 10:39:40;;;;;;;12.27;4.00;;;16.30;99.90;;;;;;5068512;28;20468;-57
2021/12/29 10:42:20;;;;;;;10.63;3.22;;;16.40;99.90;;;;;;5071315;28;20060;-58
2021/12/29 10:44:52;;;;;;;11.07;3.40;;;16.70;99.90;;;;;;5071367;28;20033;-58
2021/12/29 10:47:19;;;;;;;13.75;3.70;;;17.00;99.90;;;;;;5061218;28;20111;-61
2021/12/29 10:49:54;;;;;;;13.02;3.30;;;17.00;99.90;;;;;;5069141;28;20502;-61
2021/12/29 10:52:38;;;;;;;15.23;3.90;;;17.10;99.90;;;;;;5072444;28;20115;-61
2021/12/29 10:55:15;;;;;;;11.50;3.67;;;17.40;99.90;;;;;;5069502;28;20035;-61
2021/12/29 10:57:41;;;;;;;11.27;3.60;;;17.90;99.90;;;;;;5068848;28;20032;-61
2021/12/29 11:00:14;;;;;;;12.27;3.67;;;19.30;99.90;;;;;;5069271;28;20387;-61
2021/12/29 11:02:42;;;;;;;10.23;3.42;;;20.20;99.90;;;;;;5069440;28;20039;-61
2021/12/29 11:05:10;;;;;;;9.65;3.35;;;20.20;99.90;;;;;;5070055;28;20044;-61
2021/12/29 11:07:39;;;;;;;12.95;3.58;;;20.30;99.90;;;;;;5072414;28;20024;-60
2021/12/29 11:10:17;;;;;;;11.13;3.40;;;20.00;99.90;;;;;;5069020;28;20028;-61
2021/12/29 11:12:54;;;;;;;12.07;3.53;;;19.90;99.90;;;;;;5068934;28;20036;-61
2021/12/29 11:15:26;;;;;;;11.20;3.47;;;19.50;99.90;;;;;;5068655;28;20131;-61
2021/12/29 11:17:54;;;;;;;13.32;3.88;;;19.00;99.90;;;;;;5069039;28;20113;-61
2021/12/29 11:20:24;;;;;;;21.88;12.57;;;19.50;99.90;;;;;;5069089;28;20459;-61
2021/12/29 11:22:51;;;;;;;14.13;4.00;;;20.30;99.90;;;;;;5072324;28;20391;-61
2021/12/29 11:25:31;;;;;;;24.42;13.93;;;20.50;99.90;;;;;;5069719;28;20028;-60
2021/12/29 11:27:57;;;;;;;17.17;9.10;;;20.20;99.90;;;;;;5068573;28;20170;-61
2021/12/29 11:30:23;;;;;;;23.42;13.13;;;19.90;99.90;;;;;;5068425;28;20108;-61
2021/12/29 11:32:49;;;;;;;14.48;7.65;;;19.90;99.90;;;;;;5068661;28;20040;-61
2021/12/29 11:35:20;;;;;;;11.27;3.65;;;19.70;99.90;;;;;;5053106;28;20032;-61
2021/12/29 11:37:57;;;;;;;9.30;3.88;;;20.00;99.90;;;;;;5067621;28;20028;-61
2021/12/29 11:40:34;;;;;;;10.45;3.28;;;20.10;99.90;;;;;;5068881;28;20043;-61
2021/12/29 11:42:59;;;;;;;13.50;3.10;;;20.40;99.90;;;;;;5068154;28;20035;-61
2021/12/29 11:45:25;;;;;;;12.13;2.97;;;20.10;99.90;;;;;;5068938;28;20032;-61
2021/12/29 11:47:52;;;;;;;11.05;3.40;;;19.80;99.90;;;;;;5069164;28;20020;-61
2021/12/29 11:50:27;;;;;;;13.90;3.67;;;19.90;99.90;;;;;;5068850;28;20107;-61
2021/12/29 11:53:20;;;;;;;9.68;3.22;;;19.90;99.90;;;;;;5070753;28;20020;-61
2021/12/29 11:55:58;;;;;;;10.82;3.33;;;19.90;99.90;;;;;;5067782;28;20031;-61
2021/12/29 11:58:31;;;;;;;13.65;3.20;;;19.90;99.90;;;;;;5070466;28;20283;-61
2021/12/29 12:01:14;;;;;;;11.07;3.30;;;19.40;99.90;;;;;;5067329;28;20455;-61
2021/12/29 12:03:54;;;;;;;14.32;3.47;;;19.30;99.90;;;;;;5069673;28;20081;-61
2021/12/29 12:06:31;;;;;;;11.55;3.17;;;19.40;99.90;;;;;;5067546;28;20040;-61
2021/12/29 12:09:24;;;;;;;12.75;3.50;;;19.40;99.90;;;;;;5067654;28;20036;-62
2021/12/29 12:11:52;;;;;;;14.50;3.47;;;19.40;99.90;;;;;;5064988;28;20043;-60
2021/12/29 12:14:33;;;;;;;21.27;7.10;;;19.40;99.90;;;;;;5067685;28;20277;-61
2021/12/29 12:17:08;;;;;;;19.23;4.63;;;19.50;99.90;;;;;;5052011;28;20151;-61
2021/12/29 12:19:34;;;;;;;16.75;5.93;;;18.90;99.90;;;;;;5070768;28;20402;-60
2021/12/29 12:22:06;;;;;;;14.93;4.88;;;19.00;99.90;;;;;;5066362;28;20036;-61
2021/12/29 12:24:34;;;;;;;12.48;4.07;;;19.30;99.90;;;;;;5067663;28;20487;-60
2021/12/29 12:27:11;;;;;;;11.85;4.32;;;19.50;99.90;;;;;;5067415;28;20044;-60
2021/12/29 12:29:42;;;;;;;13.40;4.05;;;19.10;99.90;;;;;;5068051;28;20098;-61
2021/12/29 12:32:12;;;;;;;15.93;4.65;;;18.90;99.90;;;;;;5068792;28;20498;-61
2021/12/29 12:34:57;;;;;;;15.43;4.00;;;19.50;99.90;;;;;;5069231;28;20479;-61
2021/12/29 12:37:31;;;;;;;12.52;3.67;;;19.00;99.90;;;;;;5070808;28;20024;-61
2021/12/29 12:40:13;;;;;;;7.88;2.72;;;18.90;99.90;;;;;;5064566;28;20056;-61
2021/12/29 12:42:40;;;;;;;9.18;2.40;;;18.50;99.90;;;;;;5064415;28;20494;-61